Hlavní strana
METAR-TAF:

METAR-TAF

Letiště :

Murray, Kentucky, Spojené státy americké

zeměpisná šířka: 36-39-52N, zeměpisná délka: 088-22-22W, výška: 176 m

Aktuální stav počasí

Zpráva byla vytvořena před 23 minutami, v 10:35 UTC
Severní vítr 6 kt
Teplota 2°C
Vlhkost vzduchu 87%
Tlak 1025 hPa
Viditelnost: 16.1 km
Jasno

METAR: KCEY 251035Z AUTO 35006KT 10SM CLR 02/00 A3028 RMK AO1

Čas: 04:58 (10:58 UTC)


TAF: chybějící

Stav a předpovědi počasí z více než 4 000 letišť (zprávy METAR a TAF).

Červené a žluté tečky na mapě představují dostupné meteorologické stanice.

Když kurzor umístíte na tečku, zobrazí se název stanice.

Pak kliknutím zobrazíte stav a předpověď počasí.

Chcete-li změnit mapu, kliknutím na zelené tlačítko se znaménkem +mapu přiblížíte, kliknutím na zelené tlačítko se znaménkem – mapu oddálíte a kliknutím na zelené šipky přejdete na sousední mapy.


METAR-TAF: